sensor_id;sensor_type;location;lat;lon;timestamp;pressure;altitude;pressure_sealevel;temperature
54746;BMP180;40640;48.130;11.356;2023-05-07T00:00:45;95599.00;;;14.40
54746;BMP180;40640;48.130;11.356;2023-05-07T00:04:48;95593.00;;;14.40
54746;BMP180;40640;48.130;11.356;2023-05-07T00:08:51;95594.00;;;14.40
54746;BMP180;40640;48.130;11.356;2023-05-07T00:12:56;95601.00;;;14.40
54746;BMP180;40640;48.130;11.356;2023-05-07T00:16:59;95590.00;;;14.50
54746;BMP180;40640;48.130;11.356;2023-05-07T00:21:01;95591.00;;;14.50
54746;BMP180;40640;48.130;11.356;2023-05-07T00:25:05;95589.00;;;14.60
54746;BMP180;40640;48.130;11.356;2023-05-07T00:29:09;95578.00;;;14.60
54746;BMP180;40640;48.130;11.356;2023-05-07T00:33:12;95576.00;;;14.60
54746;BMP180;40640;48.130;11.356;2023-05-07T00:37:15;95583.00;;;14.40
54746;BMP180;40640;48.130;11.356;2023-05-07T00:41:18;95585.00;;;14.40
54746;BMP180;40640;48.130;11.356;2023-05-07T00:45:23;95591.00;;;14.50
54746;BMP180;40640;48.130;11.356;2023-05-07T00:49:37;95578.00;;;14.50
54746;BMP180;40640;48.130;11.356;2023-05-07T00:53:40;95590.00;;;14.30
54746;BMP180;40640;48.130;11.356;2023-05-07T00:57:43;95578.00;;;14.30
54746;BMP180;40640;48.130;11.356;2023-05-07T01:01:48;95588.00;;;14.30
54746;BMP180;40640;48.130;11.356;2023-05-07T01:05:51;95582.00;;;14.30
54746;BMP180;40640;48.130;11.356;2023-05-07T01:09:55;95584.00;;;14.30
54746;BMP180;40640;48.130;11.356;2023-05-07T01:13:59;95585.00;;;14.30
54746;BMP180;40640;48.130;11.356;2023-05-07T01:18:04;95582.00;;;14.30
54746;BMP180;40640;48.130;11.356;2023-05-07T01:22:10;95580.00;;;14.40
54746;BMP180;40640;48.130;11.356;2023-05-07T01:26:23;95569.00;;;14.30
54746;BMP180;40640;48.130;11.356;2023-05-07T01:30:27;95575.00;;;14.30
54746;BMP180;40640;48.130;11.356;2023-05-07T01:34:33;95578.00;;;14.30
54746;BMP180;40640;48.130;11.356;2023-05-07T01:38:37;95575.00;;;14.20
54746;BMP180;40640;48.130;11.356;2023-05-07T01:42:43;95577.00;;;14.10
54746;BMP180;40640;48.130;11.356;2023-05-07T01:46:46;95568.00;;;13.90
54746;BMP180;40640;48.130;11.356;2023-05-07T01:50:50;95567.00;;;13.80
54746;BMP180;40640;48.130;11.356;2023-05-07T01:54:53;95577.00;;;13.70
54746;BMP180;40640;48.130;11.356;2023-05-07T01:58:58;95567.00;;;13.60
54746;BMP180;40640;48.130;11.356;2023-05-07T02:03:01;95568.00;;;13.30
54746;BMP180;40640;48.130;11.356;2023-05-07T02:07:18;95569.00;;;13.40
54746;BMP180;40640;48.130;11.356;2023-05-07T02:11:21;95570.00;;;13.20
54746;BMP180;40640;48.130;11.356;2023-05-07T02:15:26;95565.00;;;13.30
54746;BMP180;40640;48.130;11.356;2023-05-07T02:19:30;95574.00;;;13.30
54746;BMP180;40640;48.130;11.356;2023-05-07T02:23:33;95561.00;;;13.10
54746;BMP180;40640;48.130;11.356;2023-05-07T02:27:36;95567.00;;;13.00
54746;BMP180;40640;48.130;11.356;2023-05-07T02:31:40;95564.00;;;13.10
54746;BMP180;40640;48.130;11.356;2023-05-07T02:35:44;95565.00;;;13.20
54746;BMP180;40640;48.130;11.356;2023-05-07T02:39:49;95564.00;;;13.10
54746;BMP180;40640;48.130;11.356;2023-05-07T02:43:52;95566.00;;;13.00
54746;BMP180;40640;48.130;11.356;2023-05-07T02:47:57;95575.00;;;13.00
54746;BMP180;40640;48.130;11.356;2023-05-07T02:51:59;95570.00;;;13.10
54746;BMP180;40640;48.130;11.356;2023-05-07T02:56:03;95565.00;;;13.20
54746;BMP180;40640;48.130;11.356;2023-05-07T03:00:11;95569.00;;;13.20
54746;BMP180;40640;48.130;11.356;2023-05-07T03:04:21;95558.00;;;13.20
54746;BMP180;40640;48.130;11.356;2023-05-07T03:08:24;95552.00;;;13.20
54746;BMP180;40640;48.130;11.356;2023-05-07T03:12:27;95567.00;;;13.00
54746;BMP180;40640;48.130;11.356;2023-05-07T03:16:30;95558.00;;;12.90
54746;BMP180;40640;48.130;11.356;2023-05-07T03:20:34;95544.00;;;12.90
54746;BMP180;40640;48.130;11.356;2023-05-07T03:24:38;95538.00;;;13.00
54746;BMP180;40640;48.130;11.356;2023-05-07T03:28:41;95554.00;;;13.00
54746;BMP180;40640;48.130;11.356;2023-05-07T03:32:47;95557.00;;;13.10
54746;BMP180;40640;48.130;11.356;2023-05-07T03:36:51;95556.00;;;13.10
54746;BMP180;40640;48.130;11.356;2023-05-07T03:40:57;95558.00;;;13.10
54746;BMP180;40640;48.130;11.356;2023-05-07T03:45:00;95563.00;;;13.10
54746;BMP180;40640;48.130;11.356;2023-05-07T03:49:04;95548.00;;;13.00
54746;BMP180;40640;48.130;11.356;2023-05-07T03:53:09;95557.00;;;13.00
54746;BMP180;40640;48.130;11.356;2023-05-07T03:57:13;95567.00;;;13.10
54746;BMP180;40640;48.130;11.356;2023-05-07T04:01:16;95571.00;;;13.00
54746;BMP180;40640;48.130;11.356;2023-05-07T04:05:20;95569.00;;;12.90
54746;BMP180;40640;48.130;11.356;2023-05-07T04:09:27;95567.00;;;12.90
54746;BMP180;40640;48.130;11.356;2023-05-07T04:13:31;95569.00;;;12.90
54746;BMP180;40640;48.130;11.356;2023-05-07T04:17:36;95573.00;;;12.90
54746;BMP180;40640;48.130;11.356;2023-05-07T04:21:39;95585.00;;;12.80
54746;BMP180;40640;48.130;11.356;2023-05-07T04:25:44;95583.00;;;12.80
54746;BMP180;40640;48.130;11.356;2023-05-07T04:30:02;95583.00;;;12.90
54746;BMP180;40640;48.130;11.356;2023-05-07T04:34:11;95585.00;;;13.00
54746;BMP180;40640;48.130;11.356;2023-05-07T04:38:15;95588.00;;;13.10
54746;BMP180;40640;48.130;11.356;2023-05-07T04:42:20;95590.00;;;13.00
54746;BMP180;40640;48.130;11.356;2023-05-07T04:46:24;95586.00;;;12.90
54746;BMP180;40640;48.130;11.356;2023-05-07T04:50:31;95581.00;;;12.80
54746;BMP180;40640;48.130;11.356;2023-05-07T04:54:36;95585.00;;;12.70
54746;BMP180;40640;48.130;11.356;2023-05-07T04:58:42;95589.00;;;12.70
54746;BMP180;40640;48.130;11.356;2023-05-07T05:02:46;95598.00;;;12.80
54746;BMP180;40640;48.130;11.356;2023-05-07T05:06:53;95596.00;;;13.00
54746;BMP180;40640;48.130;11.356;2023-05-07T05:10:56;95585.00;;;13.20
54746;BMP180;40640;48.130;11.356;2023-05-07T05:15:00;95588.00;;;13.20
54746;BMP180;40640;48.130;11.356;2023-05-07T05:19:03;95587.00;;;13.20
54746;BMP180;40640;48.130;11.356;2023-05-07T05:23:09;95588.00;;;13.30
54746;BMP180;40640;48.130;11.356;2023-05-07T05:27:12;95592.00;;;13.30
54746;BMP180;40640;48.130;11.356;2023-05-07T05:31:17;95594.00;;;13.50
54746;BMP180;40640;48.130;11.356;2023-05-07T05:35:23;95583.00;;;13.80
54746;BMP180;40640;48.130;11.356;2023-05-07T05:39:26;95591.00;;;14.10
54746;BMP180;40640;48.130;11.356;2023-05-07T05:43:29;95593.00;;;14.30
54746;BMP180;40640;48.130;11.356;2023-05-07T05:47:34;95590.00;;;15.00
54746;BMP180;40640;48.130;11.356;2023-05-07T05:51:37;95597.00;;;15.90
54746;BMP180;40640;48.130;11.356;2023-05-07T05:55:41;95592.00;;;17.20
54746;BMP180;40640;48.130;11.356;2023-05-07T05:59:46;95600.00;;;19.80
54746;BMP180;40640;48.130;11.356;2023-05-07T06:03:50;95599.00;;;22.20
54746;BMP180;40640;48.130;11.356;2023-05-07T06:07:53;95600.00;;;23.90
54746;BMP180;40640;48.130;11.356;2023-05-07T06:11:56;95605.00;;;25.40
54746;BMP180;40640;48.130;11.356;2023-05-07T06:16:03;95596.00;;;26.60
54746;BMP180;40640;48.130;11.356;2023-05-07T06:20:08;95604.00;;;27.70
54746;BMP180;40640;48.130;11.356;2023-05-07T06:24:13;95609.00;;;28.80
54746;BMP180;40640;48.130;11.356;2023-05-07T06:28:16;95619.00;;;29.80
54746;BMP180;40640;48.130;11.356;2023-05-07T06:32:20;95613.00;;;30.10
54746;BMP180;40640;48.130;11.356;2023-05-07T06:36:26;95621.00;;;30.90
54746;BMP180;40640;48.130;11.356;2023-05-07T06:40:32;95634.00;;;30.50
54746;BMP180;40640;48.130;11.356;2023-05-07T06:44:35;95625.00;;;30.80
54746;BMP180;40640;48.130;11.356;2023-05-07T06:48:44;95625.00;;;30.20
54746;BMP180;40640;48.130;11.356;2023-05-07T06:52:48;95637.00;;;30.20
54746;BMP180;40640;48.130;11.356;2023-05-07T06:56:51;95635.00;;;29.80
54746;BMP180;40640;48.130;11.356;2023-05-07T07:00:54;95636.00;;;29.60
54746;BMP180;40640;48.130;11.356;2023-05-07T07:04:58;95640.00;;;29.60
54746;BMP180;40640;48.130;11.356;2023-05-07T07:09:02;95643.00;;;29.10
54746;BMP180;40640;48.130;11.356;2023-05-07T07:13:06;95640.00;;;28.90
54746;BMP180;40640;48.130;11.356;2023-05-07T07:17:09;95645.00;;;28.30
54746;BMP180;40640;48.130;11.356;2023-05-07T07:21:11;95646.00;;;28.40
54746;BMP180;40640;48.130;11.356;2023-05-07T07:25:16;95644.00;;;28.20
54746;BMP180;40640;48.130;11.356;2023-05-07T07:29:19;95642.00;;;28.30
54746;BMP180;40640;48.130;11.356;2023-05-07T07:33:23;95651.00;;;27.80
54746;BMP180;40640;48.130;11.356;2023-05-07T07:37:26;95657.00;;;27.30
54746;BMP180;40640;48.130;11.356;2023-05-07T07:41:30;95657.00;;;26.80
54746;BMP180;40640;48.130;11.356;2023-05-07T07:45:34;95657.00;;;26.10
54746;BMP180;40640;48.130;11.356;2023-05-07T07:49:37;95661.00;;;25.60
54746;BMP180;40640;48.130;11.356;2023-05-07T07:53:42;95657.00;;;25.70
54746;BMP180;40640;48.130;11.356;2023-05-07T07:57:47;95656.00;;;25.60
54746;BMP180;40640;48.130;11.356;2023-05-07T08:01:50;95661.00;;;25.50
54746;BMP180;40640;48.130;11.356;2023-05-07T08:05:58;95655.00;;;25.20
54746;BMP180;40640;48.130;11.356;2023-05-07T08:10:02;95661.00;;;25.30
54746;BMP180;40640;48.130;11.356;2023-05-07T08:14:07;95654.00;;;25.30
54746;BMP180;40640;48.130;11.356;2023-05-07T08:18:11;95656.00;;;25.40
54746;BMP180;40640;48.130;11.356;2023-05-07T08:22:14;95658.00;;;25.40
54746;BMP180;40640;48.130;11.356;2023-05-07T08:26:18;95662.00;;;25.80
54746;BMP180;40640;48.130;11.356;2023-05-07T08:30:23;95661.00;;;25.70
54746;BMP180;40640;48.130;11.356;2023-05-07T08:34:27;95666.00;;;25.40
54746;BMP180;40640;48.130;11.356;2023-05-07T08:38:31;95667.00;;;25.20
54746;BMP180;40640;48.130;11.356;2023-05-07T08:42:36;95666.00;;;25.20
54746;BMP180;40640;48.130;11.356;2023-05-07T08:46:41;95674.00;;;25.20
54746;BMP180;40640;48.130;11.356;2023-05-07T08:50:45;95669.00;;;25.60
54746;BMP180;40640;48.130;11.356;2023-05-07T08:54:48;95674.00;;;25.40
54746;BMP180;40640;48.130;11.356;2023-05-07T08:58:51;95666.00;;;25.60
54746;BMP180;40640;48.130;11.356;2023-05-07T09:03:00;95669.00;;;25.40
54746;BMP180;40640;48.130;11.356;2023-05-07T09:07:04;95673.00;;;25.70
54746;BMP180;40640;48.130;11.356;2023-05-07T09:11:12;95668.00;;;25.80
54746;BMP180;40640;48.130;11.356;2023-05-07T09:15:15;95667.00;;;25.90
54746;BMP180;40640;48.130;11.356;2023-05-07T09:19:23;95670.00;;;26.10
54746;BMP180;40640;48.130;11.356;2023-05-07T09:23:28;95669.00;;;26.50
54746;BMP180;40640;48.130;11.356;2023-05-07T09:27:31;95669.00;;;26.80
54746;BMP180;40640;48.130;11.356;2023-05-07T09:31:36;95663.00;;;26.90
54746;BMP180;40640;48.130;11.356;2023-05-07T09:35:42;95663.00;;;26.60
54746;BMP180;40640;48.130;11.356;2023-05-07T09:39:50;95667.00;;;26.90
54746;BMP180;40640;48.130;11.356;2023-05-07T09:43:57;95664.00;;;27.10
54746;BMP180;40640;48.130;11.356;2023-05-07T09:48:06;95665.00;;;27.50
54746;BMP180;40640;48.130;11.356;2023-05-07T09:52:13;95657.00;;;27.30
54746;BMP180;40640;48.130;11.356;2023-05-07T09:56:21;95655.00;;;26.70
54746;BMP180;40640;48.130;11.356;2023-05-07T10:00:25;95668.00;;;27.20
54746;BMP180;40640;48.130;11.356;2023-05-07T10:04:38;95675.00;;;27.10
54746;BMP180;40640;48.130;11.356;2023-05-07T10:08:44;95665.00;;;26.90
54746;BMP180;40640;48.130;11.356;2023-05-07T10:12:48;95675.00;;;27.30
54746;BMP180;40640;48.130;11.356;2023-05-07T10:17:29;95673.00;;;27.50
54746;BMP180;40640;48.130;11.356;2023-05-07T10:21:36;95670.00;;;27.80
54746;BMP180;40640;48.130;11.356;2023-05-07T10:25:41;95668.00;;;27.90
54746;BMP180;40640;48.130;11.356;2023-05-07T10:29:58;95668.00;;;27.70
54746;BMP180;40640;48.130;11.356;2023-05-07T10:34:07;95668.00;;;28.00
54746;BMP180;40640;48.130;11.356;2023-05-07T10:38:13;95674.00;;;28.10
54746;BMP180;40640;48.130;11.356;2023-05-07T10:42:20;95667.00;;;28.20
54746;BMP180;40640;48.130;11.356;2023-05-07T10:46:26;95670.00;;;28.10
54746;BMP180;40640;48.130;11.356;2023-05-07T10:50:42;95673.00;;;27.70
54746;BMP180;40640;48.130;11.356;2023-05-07T10:54:45;95673.00;;;27.40
54746;BMP180;40640;48.130;11.356;2023-05-07T10:58:51;95662.00;;;27.00
54746;BMP180;40640;48.130;11.356;2023-05-07T11:03:06;95667.00;;;26.60
54746;BMP180;40640;48.130;11.356;2023-05-07T11:07:29;95671.00;;;27.10
54746;BMP180;40640;48.130;11.356;2023-05-07T11:11:55;95655.00;;;27.70
54746;BMP180;40640;48.130;11.356;2023-05-07T11:16:20;95656.00;;;28.00
54746;BMP180;40640;48.130;11.356;2023-05-07T11:20:45;95656.00;;;28.10
54746;BMP180;40640;48.130;11.356;2023-05-07T11:25:18;95660.00;;;28.00
54746;BMP180;40640;48.130;11.356;2023-05-07T11:29:27;95652.00;;;28.20
54746;BMP180;40640;48.130;11.356;2023-05-07T11:33:45;95647.00;;;28.40
54746;BMP180;40640;48.130;11.356;2023-05-07T11:37:58;95638.00;;;28.80
54746;BMP180;40640;48.130;11.356;2023-05-07T11:42:03;95651.00;;;29.40
54746;BMP180;40640;48.130;11.356;2023-05-07T11:46:08;95648.00;;;30.00
54746;BMP180;40640;48.130;11.356;2023-05-07T11:50:14;95646.00;;;30.00
54746;BMP180;40640;48.130;11.356;2023-05-07T11:54:17;95647.00;;;29.80
54746;BMP180;40640;48.130;11.356;2023-05-07T11:58:21;95644.00;;;29.70
54746;BMP180;40640;48.130;11.356;2023-05-07T12:02:25;95643.00;;;30.40
54746;BMP180;40640;48.130;11.356;2023-05-07T12:06:31;95642.00;;;31.50
54746;BMP180;40640;48.130;11.356;2023-05-07T12:10:34;95632.00;;;32.50
54746;BMP180;40640;48.130;11.356;2023-05-07T12:14:38;95628.00;;;32.50
54746;BMP180;40640;48.130;11.356;2023-05-07T12:18:41;95632.00;;;32.90
54746;BMP180;40640;48.130;11.356;2023-05-07T12:22:47;95630.00;;;33.40
54746;BMP180;40640;48.130;11.356;2023-05-07T12:26:50;95628.00;;;33.10
54746;BMP180;40640;48.130;11.356;2023-05-07T12:30:53;95626.00;;;32.90
54746;BMP180;40640;48.130;11.356;2023-05-07T12:34:56;95622.00;;;32.90
54746;BMP180;40640;48.130;11.356;2023-05-07T12:39:00;95629.00;;;32.20
54746;BMP180;40640;48.130;11.356;2023-05-07T12:43:03;95614.00;;;31.10
54746;BMP180;40640;48.130;11.356;2023-05-07T12:47:06;95615.00;;;31.60
54746;BMP180;40640;48.130;11.356;2023-05-07T12:51:09;95615.00;;;31.40
54746;BMP180;40640;48.130;11.356;2023-05-07T12:55:15;95620.00;;;31.50
54746;BMP180;40640;48.130;11.356;2023-05-07T12:59:19;95627.00;;;31.00
54746;BMP180;40640;48.130;11.356;2023-05-07T13:03:34;95628.00;;;30.60
54746;BMP180;40640;48.130;11.356;2023-05-07T13:07:37;95623.00;;;30.20
54746;BMP180;40640;48.130;11.356;2023-05-07T13:11:41;95632.00;;;30.00
54746;BMP180;40640;48.130;11.356;2023-05-07T13:15:44;95630.00;;;30.90
54746;BMP180;40640;48.130;11.356;2023-05-07T13:19:47;95627.00;;;31.40
54746;BMP180;40640;48.130;11.356;2023-05-07T13:23:50;95640.00;;;31.40
54746;BMP180;40640;48.130;11.356;2023-05-07T13:27:54;95641.00;;;31.00
54746;BMP180;40640;48.130;11.356;2023-05-07T13:32:11;95636.00;;;30.40
54746;BMP180;40640;48.130;11.356;2023-05-07T13:36:14;95627.00;;;30.30
54746;BMP180;40640;48.130;11.356;2023-05-07T13:40:17;95631.00;;;30.20
54746;BMP180;40640;48.130;11.356;2023-05-07T13:44:22;95631.00;;;29.90
54746;BMP180;40640;48.130;11.356;2023-05-07T13:48:25;95633.00;;;29.60
54746;BMP180;40640;48.130;11.356;2023-05-07T13:52:28;95634.00;;;29.00
54746;BMP180;40640;48.130;11.356;2023-05-07T13:56:31;95631.00;;;28.60
54746;BMP180;40640;48.130;11.356;2023-05-07T14:00:36;95622.00;;;28.20
54746;BMP180;40640;48.130;11.356;2023-05-07T14:04:38;95636.00;;;27.60
54746;BMP180;40640;48.130;11.356;2023-05-07T14:08:41;95641.00;;;27.30
54746;BMP180;40640;48.130;11.356;2023-05-07T14:12:44;95640.00;;;27.10
54746;BMP180;40640;48.130;11.356;2023-05-07T14:16:50;95636.00;;;27.10
54746;BMP180;40640;48.130;11.356;2023-05-07T14:20:53;95636.00;;;27.10
54746;BMP180;40640;48.130;11.356;2023-05-07T14:24:56;95637.00;;;27.10
54746;BMP180;40640;48.130;11.356;2023-05-07T14:29:16;95635.00;;;26.90
54746;BMP180;40640;48.130;11.356;2023-05-07T14:33:26;95626.00;;;26.70
54746;BMP180;40640;48.130;11.356;2023-05-07T14:37:29;95621.00;;;26.40
54746;BMP180;40640;48.130;11.356;2023-05-07T14:41:31;95627.00;;;26.20
54746;BMP180;40640;48.130;11.356;2023-05-07T14:45:34;95624.00;;;26.10
54746;BMP180;40640;48.130;11.356;2023-05-07T14:49:39;95626.00;;;25.90
54746;BMP180;40640;48.130;11.356;2023-05-07T14:53:43;95627.00;;;25.80
54746;BMP180;40640;48.130;11.356;2023-05-07T14:57:46;95625.00;;;25.50
54746;BMP180;40640;48.130;11.356;2023-05-07T15:01:49;95622.00;;;25.40
54746;BMP180;40640;48.130;11.356;2023-05-07T15:05:53;95621.00;;;25.30
54746;BMP180;40640;48.130;11.356;2023-05-07T15:09:56;95625.00;;;25.10
54746;BMP180;40640;48.130;11.356;2023-05-07T15:13:59;95627.00;;;24.90
54746;BMP180;40640;48.130;11.356;2023-05-07T15:18:02;95622.00;;;24.80
54746;BMP180;40640;48.130;11.356;2023-05-07T15:22:06;95623.00;;;24.50
54746;BMP180;40640;48.130;11.356;2023-05-07T15:26:10;95618.00;;;24.40
54746;BMP180;40640;48.130;11.356;2023-05-07T15:30:14;95608.00;;;24.30
54746;BMP180;40640;48.130;11.356;2023-05-07T15:34:17;95613.00;;;24.20
54746;BMP180;40640;48.130;11.356;2023-05-07T15:38:21;95615.00;;;24.10
54746;BMP180;40640;48.130;11.356;2023-05-07T15:42:24;95614.00;;;24.00
54746;BMP180;40640;48.130;11.356;2023-05-07T15:46:26;95612.00;;;24.00
54746;BMP180;40640;48.130;11.356;2023-05-07T15:50:29;95619.00;;;24.00
54746;BMP180;40640;48.130;11.356;2023-05-07T15:54:34;95616.00;;;23.90
54746;BMP180;40640;48.130;11.356;2023-05-07T15:58:38;95607.00;;;23.90
54746;BMP180;40640;48.130;11.356;2023-05-07T16:02:41;95606.00;;;23.90
54746;BMP180;40640;48.130;11.356;2023-05-07T16:06:44;95607.00;;;23.90
54746;BMP180;40640;48.130;11.356;2023-05-07T16:10:49;95602.00;;;23.90
54746;BMP180;40640;48.130;11.356;2023-05-07T16:14:52;95596.00;;;23.90
54746;BMP180;40640;48.130;11.356;2023-05-07T16:18:55;95601.00;;;23.80
54746;BMP180;40640;48.130;11.356;2023-05-07T16:22:58;95598.00;;;23.80
54746;BMP180;40640;48.130;11.356;2023-05-07T16:27:02;95607.00;;;23.70
54746;BMP180;40640;48.130;11.356;2023-05-07T16:31:06;95596.00;;;23.50
54746;BMP180;40640;48.130;11.356;2023-05-07T16:35:10;95605.00;;;23.40
54746;BMP180;40640;48.130;11.356;2023-05-07T16:39:13;95604.00;;;23.30
54746;BMP180;40640;48.130;11.356;2023-05-07T16:43:17;95603.00;;;23.20
54746;BMP180;40640;48.130;11.356;2023-05-07T16:47:20;95602.00;;;23.20
54746;BMP180;40640;48.130;11.356;2023-05-07T16:51:23;95605.00;;;22.90
54746;BMP180;40640;48.130;11.356;2023-05-07T16:55:26;95608.00;;;22.90
54746;BMP180;40640;48.130;11.356;2023-05-07T16:59:32;95606.00;;;22.80
54746;BMP180;40640;48.130;11.356;2023-05-07T17:03:35;95611.00;;;22.70
54746;BMP180;40640;48.130;11.356;2023-05-07T17:07:38;95621.00;;;22.70
54746;BMP180;40640;48.130;11.356;2023-05-07T17:11:41;95627.00;;;22.60
54746;BMP180;40640;48.130;11.356;2023-05-07T17:15:45;95625.00;;;22.50
54746;BMP180;40640;48.130;11.356;2023-05-07T17:19:48;95641.00;;;22.40
54746;BMP180;40640;48.130;11.356;2023-05-07T17:23:51;95655.00;;;22.20
54746;BMP180;40640;48.130;11.356;2023-05-07T17:27:54;95645.00;;;22.10
54746;BMP180;40640;48.130;11.356;2023-05-07T17:31:58;95653.00;;;22.10
54746;BMP180;40640;48.130;11.356;2023-05-07T17:36:01;95655.00;;;22.00
54746;BMP180;40640;48.130;11.356;2023-05-07T17:40:05;95650.00;;;21.90
54746;BMP180;40640;48.130;11.356;2023-05-07T17:44:08;95656.00;;;21.80
54746;BMP180;40640;48.130;11.356;2023-05-07T17:48:13;95656.00;;;21.70
54746;BMP180;40640;48.130;11.356;2023-05-07T17:52:15;95670.00;;;21.50
54746;BMP180;40640;48.130;11.356;2023-05-07T17:56:18;95672.00;;;21.50
54746;BMP180;40640;48.130;11.356;2023-05-07T18:00:21;95674.00;;;21.40
54746;BMP180;40640;48.130;11.356;2023-05-07T18:04:26;95676.00;;;21.30
54746;BMP180;40640;48.130;11.356;2023-05-07T18:08:29;95672.00;;;21.20
54746;BMP180;40640;48.130;11.356;2023-05-07T18:12:32;95670.00;;;21.10
54746;BMP180;40640;48.130;11.356;2023-05-07T18:16:34;95681.00;;;21.10
54746;BMP180;40640;48.130;11.356;2023-05-07T18:20:39;95690.00;;;21.00
54746;BMP180;40640;48.130;11.356;2023-05-07T18:24:41;95690.00;;;21.00
54746;BMP180;40640;48.130;11.356;2023-05-07T18:28:44;95699.00;;;20.90
54746;BMP180;40640;48.130;11.356;2023-05-07T18:32:47;95696.00;;;20.90
54746;BMP180;40640;48.130;11.356;2023-05-07T18:36:51;95700.00;;;20.80
54746;BMP180;40640;48.130;11.356;2023-05-07T18:40:59;95701.00;;;20.70
54746;BMP180;40640;48.130;11.356;2023-05-07T18:45:03;95707.00;;;20.70
54746;BMP180;40640;48.130;11.356;2023-05-07T18:49:06;95704.00;;;20.60
54746;BMP180;40640;48.130;11.356;2023-05-07T18:53:10;95702.00;;;20.60
54746;BMP180;40640;48.130;11.356;2023-05-07T18:57:13;95709.00;;;20.50
54746;BMP180;40640;48.130;11.356;2023-05-07T19:01:17;95708.00;;;20.50
54746;BMP180;40640;48.130;11.356;2023-05-07T19:05:20;95710.00;;;20.50
54746;BMP180;40640;48.130;11.356;2023-05-07T19:09:24;95724.00;;;20.40
54746;BMP180;40640;48.130;11.356;2023-05-07T19:13:27;95739.00;;;20.40
54746;BMP180;40640;48.130;11.356;2023-05-07T19:17:30;95737.00;;;20.30
54746;BMP180;40640;48.130;11.356;2023-05-07T19:21:32;95747.00;;;20.30
54746;BMP180;40640;48.130;11.356;2023-05-07T19:25:37;95743.00;;;20.20
54746;BMP180;40640;48.130;11.356;2023-05-07T19:29:39;95739.00;;;20.20
54746;BMP180;40640;48.130;11.356;2023-05-07T19:33:42;95751.00;;;20.20
54746;BMP180;40640;48.130;11.356;2023-05-07T19:37:45;95754.00;;;20.10
54746;BMP180;40640;48.130;11.356;2023-05-07T19:41:49;95764.00;;;20.00
54746;BMP180;40640;48.130;11.356;2023-05-07T19:45:52;95758.00;;;20.00
54746;BMP180;40640;48.130;11.356;2023-05-07T19:49:55;95767.00;;;20.00
54746;BMP180;40640;48.130;11.356;2023-05-07T19:53:58;95775.00;;;19.90
54746;BMP180;40640;48.130;11.356;2023-05-07T19:58:02;95780.00;;;19.90
54746;BMP180;40640;48.130;11.356;2023-05-07T20:02:06;95775.00;;;19.90
54746;BMP180;40640;48.130;11.356;2023-05-07T20:06:09;95784.00;;;19.80
54746;BMP180;40640;48.130;11.356;2023-05-07T20:10:11;95784.00;;;19.80
54746;BMP180;40640;48.130;11.356;2023-05-07T20:14:16;95788.00;;;19.70
54746;BMP180;40640;48.130;11.356;2023-05-07T20:18:19;95787.00;;;19.70
54746;BMP180;40640;48.130;11.356;2023-05-07T20:22:22;95789.00;;;19.60
54746;BMP180;40640;48.130;11.356;2023-05-07T20:26:25;95784.00;;;19.60
54746;BMP180;40640;48.130;11.356;2023-05-07T20:30:30;95793.00;;;19.50
54746;BMP180;40640;48.130;11.356;2023-05-07T20:34:33;95807.00;;;19.50
54746;BMP180;40640;48.130;11.356;2023-05-07T20:38:35;95802.00;;;19.50
54746;BMP180;40640;48.130;11.356;2023-05-07T20:42:38;95804.00;;;19.40
54746;BMP180;40640;48.130;11.356;2023-05-07T20:46:44;95808.00;;;19.40
54746;BMP180;40640;48.130;11.356;2023-05-07T20:50:48;95807.00;;;19.30
54746;BMP180;40640;48.130;11.356;2023-05-07T20:54:51;95814.00;;;19.30
54746;BMP180;40640;48.130;11.356;2023-05-07T20:58:54;95811.00;;;19.20
54746;BMP180;40640;48.130;11.356;2023-05-07T21:02:58;95824.00;;;19.20
54746;BMP180;40640;48.130;11.356;2023-05-07T21:07:01;95822.00;;;19.10
54746;BMP180;40640;48.130;11.356;2023-05-07T21:11:04;95831.00;;;19.10
54746;BMP180;40640;48.130;11.356;2023-05-07T21:15:08;95829.00;;;19.00
54746;BMP180;40640;48.130;11.356;2023-05-07T21:19:13;95834.00;;;18.90
54746;BMP180;40640;48.130;11.356;2023-05-07T21:23:16;95839.00;;;18.90
54746;BMP180;40640;48.130;11.356;2023-05-07T21:27:19;95840.00;;;18.80
54746;BMP180;40640;48.130;11.356;2023-05-07T21:31:22;95840.00;;;18.80
54746;BMP180;40640;48.130;11.356;2023-05-07T21:35:26;95848.00;;;18.80
54746;BMP180;40640;48.130;11.356;2023-05-07T21:39:29;95853.00;;;18.70
54746;BMP180;40640;48.130;11.356;2023-05-07T21:43:32;95853.00;;;18.70
54746;BMP180;40640;48.130;11.356;2023-05-07T21:47:35;95863.00;;;18.70
54746;BMP180;40640;48.130;11.356;2023-05-07T21:51:39;95866.00;;;18.70
54746;BMP180;40640;48.130;11.356;2023-05-07T21:55:42;95860.00;;;18.60
54746;BMP180;40640;48.130;11.356;2023-05-07T21:59:45;95869.00;;;18.60
54746;BMP180;40640;48.130;11.356;2023-05-07T22:03:48;95869.00;;;18.60
54746;BMP180;40640;48.130;11.356;2023-05-07T22:07:52;95872.00;;;18.50
54746;BMP180;40640;48.130;11.356;2023-05-07T22:11:55;95878.00;;;18.50
54746;BMP180;40640;48.130;11.356;2023-05-07T22:15:58;95886.00;;;18.50
54746;BMP180;40640;48.130;11.356;2023-05-07T22:20:01;95876.00;;;18.40
54746;BMP180;40640;48.130;11.356;2023-05-07T22:24:06;95887.00;;;18.40
54746;BMP180;40640;48.130;11.356;2023-05-07T22:28:09;95886.00;;;18.40
54746;BMP180;40640;48.130;11.356;2023-05-07T22:32:13;95881.00;;;18.40
54746;BMP180;40640;48.130;11.356;2023-05-07T22:36:16;95888.00;;;18.30
54746;BMP180;40640;48.130;11.356;2023-05-07T22:40:20;95895.00;;;18.30
54746;BMP180;40640;48.130;11.356;2023-05-07T22:44:23;95894.00;;;18.30
54746;BMP180;40640;48.130;11.356;2023-05-07T22:48:26;95892.00;;;18.30
54746;BMP180;40640;48.130;11.356;2023-05-07T22:52:29;95893.00;;;18.20
54746;BMP180;40640;48.130;11.356;2023-05-07T22:56:33;95896.00;;;18.20
54746;BMP180;40640;48.130;11.356;2023-05-07T23:00:36;95893.00;;;18.20
54746;BMP180;40640;48.130;11.356;2023-05-07T23:04:39;95898.00;;;18.10
54746;BMP180;40640;48.130;11.356;2023-05-07T23:08:42;95902.00;;;18.10